Flight Track Log - Related Links

Times and Time Zones

All times are in EDT time to prevent confusion due to time zone crossing. See the UPS1337 flight status page for this flight to view local times or setup timezone preferences in your user account.

Time Position Orientation Groundspeed Altitude Reporting Facility
EDT Latitude Longitude Course Direction KTS MPH feet Rate Location/Type
Thu 09:37:22 PM 27.9167 -82.6833 360° North 162 186 900  Level Tampa TRACON
Thu 09:38:22 PM 27.9667 -82.6833 360° North 182 209 3,600 2,741 Climbing Tampa TRACON
Thu 09:40:04 PM 28.0747 -82.6528 14° North 242 278 8,300 2,704 Climbing Jacksonville Center
Thu 09:41:04 PM 28.1517 -82.6572 357° North 249 287 10,900 2,050 Climbing Jacksonville Center
Thu 09:42:04 PM 28.2519 -82.6664 355° North 330 380 12,400 2,000 Climbing Jacksonville Center
Thu 09:43:04 PM 28.3647 -82.6708 358° North 361 415 14,900 2,500 Climbing Jacksonville Center
Thu 09:44:04 PM 28.4858 -82.6706 360° North 402 463 17,400 2,650 Climbing Jacksonville Center
Thu 09:45:04 PM 28.6089 -82.6750 358° North 426 490 20,200 2,500 Climbing Jacksonville Center
Thu 09:46:04 PM 28.7217 -82.6725 North 438 504 22,400 2,100 Climbing Jacksonville Center
Thu 09:47:04 PM 28.8531 -82.6722 360° North 444 511 24,400 1,850 Climbing Jacksonville Center
Thu 09:48:04 PM 28.9867 -82.6717 360° North 463 533 26,100 1,650 Climbing Jacksonville Center
Thu 09:49:04 PM 29.1244 -82.6739 359° North 479 551 27,700 1,900 Climbing Jacksonville Center
Thu 09:50:04 PM 29.2664 -82.6758 359° North 491 565 29,900 2,200 Climbing Jacksonville Center
Thu 09:51:04 PM 29.3978 -82.6781 359° North 491 565 32,100 783 Climbing Jacksonville Center
Thu 09:56:35 PM 30.1479 -82.6336 North 472 543 35,000 470 Climbing FlightAware ADS-B
Thu 09:57:14 PM 30.2340 -82.6260 North 472 543 35,000  Level FlightAware ADS-B
Thu 09:57:55 PM 30.3225 -82.6181 North 470 541 35,000  Level FlightAware ADS-B
Thu 09:59:06 PM 30.4736 -82.6428 349° North 459 528 35,000  Level FlightAware ADS-B
Thu 10:01:15 PM 30.7428 -82.7014 349° North 456 525 35,000  Level FlightAware ADS-B
Thu 10:02:12 PM 30.8587 -82.7268 349° North 455 524 35,000 -55 Level FlightAware ADS-B
Thu 10:03:04 PM 30.9450 -82.7497 349° North 455 524 34,900  Descending Jacksonville Center
Thu 10:04:04 PM 31.0725 -82.7761 350° North 449 517 35,000 50 Climbing Jacksonville Center
Thu 10:05:04 PM 31.1956 -82.8003 350° North 449 517 35,000  Level Jacksonville Center
Thu 10:06:49 PM 31.4153 -82.8489 349° North 472 543 35,000  Level Atlanta Center
Thu 10:07:49 PM 31.5408 -82.8792 348° North 466 536 35,000  Level Atlanta Center
Thu 10:08:49 PM 31.6683 -82.9042 351° North 466 536 35,000  Level Atlanta Center
Thu 10:09:49 PM 31.7939 -82.9344 348° North 466 536 35,000  Level Atlanta Center
Thu 10:10:49 PM 31.9214 -82.9597 350° North 466 536 35,000  Level Atlanta Center
Thu 10:11:49 PM 32.0469 -82.9900 348° North 466 536 35,000  Level Atlanta Center
Thu 10:12:49 PM 32.1744 -83.0206 349° North 466 536 35,000  Level Atlanta Center
Thu 10:13:49 PM 32.3019 -83.0486 349° North 466 536 35,000  Level Atlanta Center
Thu 10:14:49 PM 32.4275 -83.0767 349° North 466 536 35,000  Level Atlanta Center
Thu 10:15:49 PM 32.5550 -83.1047 349° North 466 536 35,000  Level Atlanta Center
Thu 10:16:49 PM 32.6825 -83.1356 348° North 471 542 35,000  Level Atlanta Center
Thu 10:17:49 PM 32.8183 -83.1664 349° North 460 529 35,000  Level Atlanta Center
Thu 10:18:49 PM 32.9458 -83.1947 349° North 454 522 35,000  Level Atlanta Center
Thu 10:19:49 PM 33.0756 -83.2233 350° North 459 528 35,000  Level Atlanta Center
Thu 10:20:49 PM 33.2053 -83.2542 349° North 465 535 35,000  Level Atlanta Center
Thu 10:21:49 PM 33.3347 -83.2856 349° North 470 541 35,000  Level Atlanta Center
Thu 10:22:49 PM 33.4664 -83.3142 350° North 475 547 35,000  Level Atlanta Center
Thu 10:23:49 PM 33.5981 -83.3431 350° North 475 547 35,000  Level Atlanta Center
Thu 10:24:49 PM 33.7278 -83.3744 349° North 470 541 35,000  Level Atlanta Center
Thu 10:25:49 PM 33.8553 -83.4058 348° North 470 541 35,000  Level Atlanta Center
Thu 10:26:49 PM 33.9869 -83.4325 350° North 470 541 35,000  Level Atlanta Center
Thu 10:27:49 PM 34.1186 -83.4667 348° North 470 541 35,000  Level Atlanta Center
Thu 10:28:49 PM 34.2458 -83.4936 350° North 470 541 35,000  Level Atlanta Center
Thu 10:29:49 PM 34.3756 -83.5253 349° North 470 541 35,000  Level Atlanta Center
Thu 10:30:49 PM 34.5008 -83.5547 349° North 465 535 35,000  Level Atlanta Center
Thu 10:31:49 PM 34.6283 -83.5844 349° North 465 535 35,000  Level Atlanta Center
Thu 10:32:49 PM 34.7578 -83.6167 348° North 470 541 35,000  Level Atlanta Center
Thu 10:33:49 PM 34.8850 -83.6464 349° North 470 541 35,000  Level Atlanta Center
Thu 10:34:49 PM 35.0042 -83.6989 340° North 460 529 35,000  Level Atlanta Center
Thu 10:35:50 PM 35.1253 -83.7517 340° North 460 529 35,000  Level Atlanta Center
Thu 10:36:49 PM 35.2467 -83.8100 339° North 465 535 35,000  Level Atlanta Center
Thu 10:37:49 PM 35.3697 -83.8656 340° North 465 535 35,000  Level Atlanta Center
Thu 10:38:49 PM 35.4908 -83.9214 339° North 465 535 35,000 -100 Level Atlanta Center
Thu 10:39:49 PM 35.6119 -83.9800 339° North 470 541 34,800 -400 Descending Atlanta Center
Thu 10:40:49 PM 35.7369 -84.0361 340° North 470 541 34,200 -700 Descending Atlanta Center
Thu 10:41:49 PM 35.8600 -84.0925 340° North 475 547 33,400 -1,214 Descending Atlanta Center
Thu 10:43:37 PM 36.0794 -84.1950 339° North 472 543 30,800 -1,200 Descending Indianapolis Center
Thu 10:44:39 PM 36.2031 -84.2533 339° North 475 547 30,000 -390 Descending Indianapolis Center
Thu 10:45:40 PM 36.3267 -84.3117 339° North 477 549 30,000  Level Indianapolis Center
Thu 10:46:42 PM 36.4469 -84.3689 339° North 477 549 30,000 -1,330 Level Indianapolis Center
Thu 10:52:17 PM 37.1170 -84.6904 339° North 439 505 21,200 -1,854 Descending FlightAware ADS-B
Thu 10:53:20 PM 37.2610 -84.7606 339° North 427 491 17,700 -3,184 Descending FlightAware ADS-B
Thu 10:53:55 PM 37.3242 -84.7912 339° North 417 480 16,000 -3,040 Descending FlightAware ADS-B
Thu 10:54:35 PM 37.3952 -84.8257 339° North 402 463 13,900 -1,371 Descending FlightAware ADS-B
Thu 10:58:22 PM 37.7417 -85.0722 312° West 387 445 9,900 -836 Descending FlightAware ADS-B
Thu 10:59:22 PM 37.8168 -85.1768 312° West 383 441 9,900  Level FlightAware ADS-B
Thu 11:00:22 PM 37.8855 -85.2720 312° West 381 438 9,900  Level FlightAware ADS-B
Thu 11:01:20 PM 37.9401 -85.3729 297° West 383 441 9,900  Level FlightAware ADS-B
Thu 11:02:21 PM 37.9907 -85.5021 296° West 339 390 9,900 -450 Level FlightAware ADS-B
Thu 11:03:20 PM 38.0267 -85.5954 296° West 287 330 9,000 -1,636 Descending FlightAware ADS-B
Thu 11:04:22 PM 38.0640 -85.6900 297° West 282 325 6,600 -1,525 Descending FlightAware ADS-B
Thu 11:05:22 PM 38.0968 -85.7739 296° West 246 283 5,900 -353 Descending FlightAware ADS-B
Thu 11:06:21 PM 38.1261 -85.8497 296° West 241 277 5,900  Level FlightAware ADS-B
Thu 11:06:36 PM 38.1290 -85.8565 315° West 243 280 5,900  Level FlightAware ADS-B
Thu 11:06:42 PM 38.1402 -85.8712 334° Northwest 242 278 5,900  Level FlightAware ADS-B
Thu 11:07:21 PM 38.1808 -85.8860 346° North 240 276 5,900  Level FlightAware ADS-B
Thu 11:07:42 PM 38.2043 -85.8937 345° North 238 274 5,900 -915 Level FlightAware ADS-B
Thu 11:08:20 PM 38.2405 -85.9114 336° Northwest 232 267 5,000 -1,607 Descending FlightAware ADS-B
Thu 11:08:38 PM 38.2579 -85.9176 353° North 229 264 4,400 -1,309 Descending FlightAware ADS-B
Thu 11:09:15 PM 38.2989 -85.9210 356° North 217 250 3,800 -984 Descending FlightAware ADS-B
Thu 11:09:39 PM 38.3231 -85.9190 25° Northeast 208 239 3,400 -857 Descending FlightAware ADS-B
Thu 11:09:50 PM 38.3310 -85.9108 55° Northeast 200 230 3,300 -783 Descending FlightAware ADS-B
Thu 11:10:02 PM 38.3350 -85.8990 82° East 195 224 3,100 -1,043 Descending FlightAware ADS-B
Thu 11:10:13 PM 38.3352 -85.8928 114° Southeast 193 222 2,900 -1,000 Descending FlightAware ADS-B
Thu 11:10:26 PM 38.3289 -85.8764 136° Southeast 192 221 2,700 -1,091 Descending FlightAware ADS-B
Thu 11:10:35 PM 38.3216 -85.8671 126° Southeast 187 215 2,500 -750 Descending FlightAware ADS-B
Thu 11:10:50 PM 38.3152 -85.8548 119° Southeast 184 212 2,400 -188 Descending FlightAware ADS-B
Thu 11:11:07 PM 38.3078 -85.8374 118° Southeast 186 214 2,400 70 Level FlightAware ADS-B
Thu 11:12:16 PM 38.2817 -85.7872 118° Southeast 191 220 2,500 -366 Climbing Indianapolis Center
Thu 11:13:18 PM 38.2392 -85.7672 160° South 181 208 1,600 -585 Descending Indianapolis Center
Thu 11:14:19 PM 38.1950 -85.7517 165° South 168 193 1,300 -295 Descending Indianapolis Center

Login

Don't have an account? Register now (free) for customized features, flight alerts, and more!